sensor_id;sensor_type;location;lat;lon;timestamp;temperature;humidity
2453;DHT22;63678;47.994;7.854;2023-06-19T00:01:52;22.80;99.90
2453;DHT22;63678;47.994;7.854;2023-06-19T00:04:25;22.90;99.90
2453;DHT22;63678;47.994;7.854;2023-06-19T00:07:00;22.90;99.90
2453;DHT22;63678;47.994;7.854;2023-06-19T00:09:32;22.90;99.90
2453;DHT22;63678;47.994;7.854;2023-06-19T00:12:05;22.90;99.90
2453;DHT22;63678;47.994;7.854;2023-06-19T00:14:37;22.90;99.90
2453;DHT22;63678;47.994;7.854;2023-06-19T00:17:10;23.10;99.90
2453;DHT22;63678;47.994;7.854;2023-06-19T00:19:43;23.20;99.90
2453;DHT22;63678;47.994;7.854;2023-06-19T00:22:16;23.00;99.90
2453;DHT22;63678;47.994;7.854;2023-06-19T00:24:47;23.20;99.90
2453;DHT22;63678;47.994;7.854;2023-06-19T00:27:20;23.30;99.90
2453;DHT22;63678;47.994;7.854;2023-06-19T00:29:52;23.10;99.90
2453;DHT22;63678;47.994;7.854;2023-06-19T00:34:57;22.90;99.90
2453;DHT22;63678;47.994;7.854;2023-06-19T00:42:38;22.50;99.90
2453;DHT22;63678;47.994;7.854;2023-06-19T00:45:10;22.50;99.90
2453;DHT22;63678;47.994;7.854;2023-06-19T00:47:43;22.50;99.90
2453;DHT22;63678;47.994;7.854;2023-06-19T00:50:15;22.60;99.90
2453;DHT22;63678;47.994;7.854;2023-06-19T00:52:47;22.80;99.90
2453;DHT22;63678;47.994;7.854;2023-06-19T00:55:21;22.90;99.90
2453;DHT22;63678;47.994;7.854;2023-06-19T00:57:54;22.80;99.90
2453;DHT22;63678;47.994;7.854;2023-06-19T01:00:26;22.70;99.90
2453;DHT22;63678;47.994;7.854;2023-06-19T01:03:01;22.70;99.90
2453;DHT22;63678;47.994;7.854;2023-06-19T01:05:33;22.80;99.90
2453;DHT22;63678;47.994;7.854;2023-06-19T01:11:18;22.60;99.90
2453;DHT22;63678;47.994;7.854;2023-06-19T01:14:03;22.70;99.90
2453;DHT22;63678;47.994;7.854;2023-06-19T01:16:57;23.10;99.90
2453;DHT22;63678;47.994;7.854;2023-06-19T01:19:31;22.90;99.90
2453;DHT22;63678;47.994;7.854;2023-06-19T01:22:04;22.40;99.90
2453;DHT22;63678;47.994;7.854;2023-06-19T01:24:37;22.40;99.90
2453;DHT22;63678;47.994;7.854;2023-06-19T01:27:12;22.30;99.90
2453;DHT22;63678;47.994;7.854;2023-06-19T01:29:48;22.00;99.90
2453;DHT22;63678;47.994;7.854;2023-06-19T01:32:50;21.50;99.90
2453;DHT22;63678;47.994;7.854;2023-06-19T01:35:33;21.30;99.90
2453;DHT22;63678;47.994;7.854;2023-06-19T01:38:07;20.20;99.90
2453;DHT22;63678;47.994;7.854;2023-06-19T01:40:40;20.80;99.90
2453;DHT22;63678;47.994;7.854;2023-06-19T01:43:14;20.70;99.90
2453;DHT22;63678;47.994;7.854;2023-06-19T01:45:48;20.80;99.90
2453;DHT22;63678;47.994;7.854;2023-06-19T01:48:21;20.50;99.90
2453;DHT22;63678;47.994;7.854;2023-06-19T01:50:53;20.30;99.90
2453;DHT22;63678;47.994;7.854;2023-06-19T01:53:26;19.90;99.90
2453;DHT22;63678;47.994;7.854;2023-06-19T01:55:58;19.60;99.90
2453;DHT22;63678;47.994;7.854;2023-06-19T01:58:34;20.10;99.90
2453;DHT22;63678;47.994;7.854;2023-06-19T02:01:06;20.40;99.90
2453;DHT22;63678;47.994;7.854;2023-06-19T02:03:39;20.10;99.90
2453;DHT22;63678;47.994;7.854;2023-06-19T02:06:11;19.50;99.90
2453;DHT22;63678;47.994;7.854;2023-06-19T02:08:44;19.00;99.90
2453;DHT22;63678;47.994;7.854;2023-06-19T02:11:16;18.90;99.90
2453;DHT22;63678;47.994;7.854;2023-06-19T02:13:49;19.00;99.90
2453;DHT22;63678;47.994;7.854;2023-06-19T02:16:21;19.00;99.90
2453;DHT22;63678;47.994;7.854;2023-06-19T02:18:53;19.10;99.90
2453;DHT22;63678;47.994;7.854;2023-06-19T02:26:34;18.90;99.90
2453;DHT22;63678;47.994;7.854;2023-06-19T02:29:06;19.10;99.90
2453;DHT22;63678;47.994;7.854;2023-06-19T02:31:39;19.10;99.90
2453;DHT22;63678;47.994;7.854;2023-06-19T02:34:12;19.00;99.90
2453;DHT22;63678;47.994;7.854;2023-06-19T02:36:45;19.00;99.90
2453;DHT22;63678;47.994;7.854;2023-06-19T02:41:53;19.10;99.90
2453;DHT22;63678;47.994;7.854;2023-06-19T02:44:25;19.10;99.90
2453;DHT22;63678;47.994;7.854;2023-06-19T02:46:58;19.00;99.90
2453;DHT22;63678;47.994;7.854;2023-06-19T02:49:30;19.00;99.90
2453;DHT22;63678;47.994;7.854;2023-06-19T02:52:03;18.80;99.90
2453;DHT22;63678;47.994;7.854;2023-06-19T02:54:36;18.70;99.90
2453;DHT22;63678;47.994;7.854;2023-06-19T02:57:09;18.70;99.90
2453;DHT22;63678;47.994;7.854;2023-06-19T03:02:14;18.60;99.90
2453;DHT22;63678;47.994;7.854;2023-06-19T03:04:47;18.70;99.90
2453;DHT22;63678;47.994;7.854;2023-06-19T03:07:19;18.60;99.90
2453;DHT22;63678;47.994;7.854;2023-06-19T03:12:24;18.70;99.90
2453;DHT22;63678;47.994;7.854;2023-06-19T03:14:57;18.70;99.90
2453;DHT22;63678;47.994;7.854;2023-06-19T03:17:31;18.50;99.90
2453;DHT22;63678;47.994;7.854;2023-06-19T03:20:04;18.60;99.90
2453;DHT22;63678;47.994;7.854;2023-06-19T03:25:16;18.50;99.90
2453;DHT22;63678;47.994;7.854;2023-06-19T03:27:53;18.50;99.90
2453;DHT22;63678;47.994;7.854;2023-06-19T03:32:59;18.40;99.90
2453;DHT22;63678;47.994;7.854;2023-06-19T03:35:50;18.40;99.90
2453;DHT22;63678;47.994;7.854;2023-06-19T03:38:33;18.40;99.90
2453;DHT22;63678;47.994;7.854;2023-06-19T03:41:07;18.30;99.90
2453;DHT22;63678;47.994;7.854;2023-06-19T03:43:40;18.30;99.90
2453;DHT22;63678;47.994;7.854;2023-06-19T03:48:48;19.50;99.90
2453;DHT22;63678;47.994;7.854;2023-06-19T03:53:54;19.80;99.90
2453;DHT22;63678;47.994;7.854;2023-06-19T03:56:27;19.80;99.90
2453;DHT22;63678;47.994;7.854;2023-06-19T03:58:59;20.20;99.90
2453;DHT22;63678;47.994;7.854;2023-06-19T04:01:31;20.10;99.90
2453;DHT22;63678;47.994;7.854;2023-06-19T04:04:04;20.40;99.90
2453;DHT22;63678;47.994;7.854;2023-06-19T04:06:37;20.10;99.90
2453;DHT22;63678;47.994;7.854;2023-06-19T04:09:11;19.60;99.90
2453;DHT22;63678;47.994;7.854;2023-06-19T04:11:44;19.80;99.90
2453;DHT22;63678;47.994;7.854;2023-06-19T04:14:17;19.60;99.90
2453;DHT22;63678;47.994;7.854;2023-06-19T04:16:49;19.40;99.90
2453;DHT22;63678;47.994;7.854;2023-06-19T04:19:22;19.80;99.90
2453;DHT22;63678;47.994;7.854;2023-06-19T04:21:54;19.90;99.90
2453;DHT22;63678;47.994;7.854;2023-06-19T04:24:27;20.40;99.90
2453;DHT22;63678;47.994;7.854;2023-06-19T04:27:00;20.00;99.90
2453;DHT22;63678;47.994;7.854;2023-06-19T04:32:09;20.00;99.90
2453;DHT22;63678;47.994;7.854;2023-06-19T04:34:47;20.10;99.90
2453;DHT22;63678;47.994;7.854;2023-06-19T04:37:19;20.30;99.90
2453;DHT22;63678;47.994;7.854;2023-06-19T04:39:51;20.20;99.90
2453;DHT22;63678;47.994;7.854;2023-06-19T04:42:24;20.20;99.90
2453;DHT22;63678;47.994;7.854;2023-06-19T04:44:58;19.70;99.90
2453;DHT22;63678;47.994;7.854;2023-06-19T04:47:33;19.70;99.90
2453;DHT22;63678;47.994;7.854;2023-06-19T04:50:23;19.80;99.90
2453;DHT22;63678;47.994;7.854;2023-06-19T04:52:56;20.20;99.90
2453;DHT22;63678;47.994;7.854;2023-06-19T04:55:29;20.80;99.90
2453;DHT22;63678;47.994;7.854;2023-06-19T04:58:04;21.10;99.90
2453;DHT22;63678;47.994;7.854;2023-06-19T05:00:37;20.80;99.90
2453;DHT22;63678;47.994;7.854;2023-06-19T05:05:46;20.10;99.90
2453;DHT22;63678;47.994;7.854;2023-06-19T05:08:18;20.00;99.90
2453;DHT22;63678;47.994;7.854;2023-06-19T05:10:51;19.90;99.90
2453;DHT22;63678;47.994;7.854;2023-06-19T05:13:25;19.90;99.90
2453;DHT22;63678;47.994;7.854;2023-06-19T05:15:58;19.70;99.90
2453;DHT22;63678;47.994;7.854;2023-06-19T05:18:30;19.80;99.90
2453;DHT22;63678;47.994;7.854;2023-06-19T05:21:03;19.60;99.90
2453;DHT22;63678;47.994;7.854;2023-06-19T05:23:36;19.70;99.90
2453;DHT22;63678;47.994;7.854;2023-06-19T05:26:10;19.80;99.90
2453;DHT22;63678;47.994;7.854;2023-06-19T05:28:46;19.70;99.90
2453;DHT22;63678;47.994;7.854;2023-06-19T05:33:54;19.80;99.90
2453;DHT22;63678;47.994;7.854;2023-06-19T05:36:26;19.80;99.90
2453;DHT22;63678;47.994;7.854;2023-06-19T05:38:59;19.80;99.90
2453;DHT22;63678;47.994;7.854;2023-06-19T05:41:32;20.10;99.90
2453;DHT22;63678;47.994;7.854;2023-06-19T05:46:38;20.10;99.90
2453;DHT22;63678;47.994;7.854;2023-06-19T05:49:11;20.00;99.90
2453;DHT22;63678;47.994;7.854;2023-06-19T05:54:18;20.30;99.90
2453;DHT22;63678;47.994;7.854;2023-06-19T05:56:50;20.30;99.90
2453;DHT22;63678;47.994;7.854;2023-06-19T06:02:00;20.30;99.90
2453;DHT22;63678;47.994;7.854;2023-06-19T06:04:35;20.20;99.90
2453;DHT22;63678;47.994;7.854;2023-06-19T06:07:09;20.40;99.90
2453;DHT22;63678;47.994;7.854;2023-06-19T06:09:42;20.30;99.90
2453;DHT22;63678;47.994;7.854;2023-06-19T06:12:14;20.90;99.90
2453;DHT22;63678;47.994;7.854;2023-06-19T06:14:49;20.90;99.90
2453;DHT22;63678;47.994;7.854;2023-06-19T06:17:21;21.10;99.90
2453;DHT22;63678;47.994;7.854;2023-06-19T06:19:54;21.00;99.90
2453;DHT22;63678;47.994;7.854;2023-06-19T06:22:29;21.10;99.90
2453;DHT22;63678;47.994;7.854;2023-06-19T06:25:02;21.40;99.90
2453;DHT22;63678;47.994;7.854;2023-06-19T06:27:35;21.90;99.90
2453;DHT22;63678;47.994;7.854;2023-06-19T06:30:10;21.40;99.90
2453;DHT22;63678;47.994;7.854;2023-06-19T06:32:43;22.10;99.90
2453;DHT22;63678;47.994;7.854;2023-06-19T06:35:20;24.10;99.90
2453;DHT22;63678;47.994;7.854;2023-06-19T06:37:52;25.00;99.90
2453;DHT22;63678;47.994;7.854;2023-06-19T06:40:25;24.90;99.90
2453;DHT22;63678;47.994;7.854;2023-06-19T06:42:57;24.60;99.90
2453;DHT22;63678;47.994;7.854;2023-06-19T06:45:33;25.30;99.90
2453;DHT22;63678;47.994;7.854;2023-06-19T06:48:06;25.50;99.90
2453;DHT22;63678;47.994;7.854;2023-06-19T06:51:00;25.40;99.90
2453;DHT22;63678;47.994;7.854;2023-06-19T06:53:33;24.80;99.90
2453;DHT22;63678;47.994;7.854;2023-06-19T06:56:06;23.70;99.90
2453;DHT22;63678;47.994;7.854;2023-06-19T06:58:38;24.00;99.90
2453;DHT22;63678;47.994;7.854;2023-06-19T07:01:13;24.90;99.90
2453;DHT22;63678;47.994;7.854;2023-06-19T07:03:46;24.90;99.90
2453;DHT22;63678;47.994;7.854;2023-06-19T07:06:19;25.00;99.90
2453;DHT22;63678;47.994;7.854;2023-06-19T07:08:52;25.00;99.90
2453;DHT22;63678;47.994;7.854;2023-06-19T07:11:25;24.60;99.90
2453;DHT22;63678;47.994;7.854;2023-06-19T07:13:59;24.70;99.90
2453;DHT22;63678;47.994;7.854;2023-06-19T07:16:31;24.60;99.90
2453;DHT22;63678;47.994;7.854;2023-06-19T07:19:06;24.20;99.90
2453;DHT22;63678;47.994;7.854;2023-06-19T07:21:39;23.70;99.90
2453;DHT22;63678;47.994;7.854;2023-06-19T07:24:12;23.90;99.90
2453;DHT22;63678;47.994;7.854;2023-06-19T07:26:46;23.70;99.90
2453;DHT22;63678;47.994;7.854;2023-06-19T07:29:19;23.80;99.90
2453;DHT22;63678;47.994;7.854;2023-06-19T07:31:53;23.50;99.90
2453;DHT22;63678;47.994;7.854;2023-06-19T07:36:59;23.10;99.90
2453;DHT22;63678;47.994;7.854;2023-06-19T07:39:32;22.90;99.90
2453;DHT22;63678;47.994;7.854;2023-06-19T07:47:12;23.70;99.90
2453;DHT22;63678;47.994;7.854;2023-06-19T07:49:46;23.90;99.90
2453;DHT22;63678;47.994;7.854;2023-06-19T07:54:55;25.20;99.90
2453;DHT22;63678;47.994;7.854;2023-06-19T07:57:28;25.70;99.90
2453;DHT22;63678;47.994;7.854;2023-06-19T08:00:00;25.90;99.90
2453;DHT22;63678;47.994;7.854;2023-06-19T08:02:42;26.10;99.90
2453;DHT22;63678;47.994;7.854;2023-06-19T08:05:15;25.80;99.90
2453;DHT22;63678;47.994;7.854;2023-06-19T08:07:49;25.20;99.90
2453;DHT22;63678;47.994;7.854;2023-06-19T08:12:58;25.70;99.90
2453;DHT22;63678;47.994;7.854;2023-06-19T08:15:30;25.20;99.90
2453;DHT22;63678;47.994;7.854;2023-06-19T08:18:03;25.30;99.90
2453;DHT22;63678;47.994;7.854;2023-06-19T08:20:36;25.50;99.90
2453;DHT22;63678;47.994;7.854;2023-06-19T08:23:08;25.30;99.90
2453;DHT22;63678;47.994;7.854;2023-06-19T08:25:41;24.70;99.90
2453;DHT22;63678;47.994;7.854;2023-06-19T08:28:15;24.60;99.90
2453;DHT22;63678;47.994;7.854;2023-06-19T08:33:21;25.10;99.90
2453;DHT22;63678;47.994;7.854;2023-06-19T08:38:27;26.40;99.90
2453;DHT22;63678;47.994;7.854;2023-06-19T08:41:01;26.80;99.90
2453;DHT22;63678;47.994;7.854;2023-06-19T08:43:34;27.10;99.90
2453;DHT22;63678;47.994;7.854;2023-06-19T08:46:15;27.30;99.90
2453;DHT22;63678;47.994;7.854;2023-06-19T08:51:22;28.00;99.90
2453;DHT22;63678;47.994;7.854;2023-06-19T08:54:00;29.30;99.90
2453;DHT22;63678;47.994;7.854;2023-06-19T08:56:37;29.50;99.90
2453;DHT22;63678;47.994;7.854;2023-06-19T08:59:15;28.90;99.90
2453;DHT22;63678;47.994;7.854;2023-06-19T09:02:10;29.10;99.90
2453;DHT22;63678;47.994;7.854;2023-06-19T09:10:30;29.60;99.90
2453;DHT22;63678;47.994;7.854;2023-06-19T09:13:03;29.80;99.90
2453;DHT22;63678;47.994;7.854;2023-06-19T09:15:37;29.60;99.90
2453;DHT22;63678;47.994;7.854;2023-06-19T09:18:11;29.80;99.90
2453;DHT22;63678;47.994;7.854;2023-06-19T09:20:45;30.10;99.30
2453;DHT22;63678;47.994;7.854;2023-06-19T09:23:20;30.30;99.60
2453;DHT22;63678;47.994;7.854;2023-06-19T09:25:57;31.30;98.20
2453;DHT22;63678;47.994;7.854;2023-06-19T09:28:32;30.40;99.40
2453;DHT22;63678;47.994;7.854;2023-06-19T09:31:04;31.10;96.90
2453;DHT22;63678;47.994;7.854;2023-06-19T09:33:38;29.70;95.00
2453;DHT22;63678;47.994;7.854;2023-06-19T09:36:11;29.00;95.60
2453;DHT22;63678;47.994;7.854;2023-06-19T09:38:45;29.60;95.00
2453;DHT22;63678;47.994;7.854;2023-06-19T09:41:19;29.60;95.10
2453;DHT22;63678;47.994;7.854;2023-06-19T09:43:55;29.80;95.20
2453;DHT22;63678;47.994;7.854;2023-06-19T09:46:37;30.70;94.80
2453;DHT22;63678;47.994;7.854;2023-06-19T09:49:11;30.80;92.20
2453;DHT22;63678;47.994;7.854;2023-06-19T09:51:44;30.60;91.90
2453;DHT22;63678;47.994;7.854;2023-06-19T09:54:17;30.20;90.40
2453;DHT22;63678;47.994;7.854;2023-06-19T09:56:50;29.70;90.70
2453;DHT22;63678;47.994;7.854;2023-06-19T09:59:27;31.30;90.40
2453;DHT22;63678;47.994;7.854;2023-06-19T10:02:00;31.50;90.30
2453;DHT22;63678;47.994;7.854;2023-06-19T10:04:43;30.70;88.30
2453;DHT22;63678;47.994;7.854;2023-06-19T10:07:21;31.10;88.70
2453;DHT22;63678;47.994;7.854;2023-06-19T10:09:56;30.70;87.90
2453;DHT22;63678;47.994;7.854;2023-06-19T10:12:39;30.40;86.80
2453;DHT22;63678;47.994;7.854;2023-06-19T10:15:17;30.50;86.80
2453;DHT22;63678;47.994;7.854;2023-06-19T10:18:04;30.50;86.20
2453;DHT22;63678;47.994;7.854;2023-06-19T10:20:38;30.50;86.50
2453;DHT22;63678;47.994;7.854;2023-06-19T10:23:21;30.80;83.80
2453;DHT22;63678;47.994;7.854;2023-06-19T10:25:58;30.60;84.70
2453;DHT22;63678;47.994;7.854;2023-06-19T10:28:34;31.00;84.70
2453;DHT22;63678;47.994;7.854;2023-06-19T10:31:08;31.10;81.30
2453;DHT22;63678;47.994;7.854;2023-06-19T10:33:40;31.60;82.90
2453;DHT22;63678;47.994;7.854;2023-06-19T10:36:21;31.10;82.70
2453;DHT22;63678;47.994;7.854;2023-06-19T10:38:54;31.60;80.00
2453;DHT22;63678;47.994;7.854;2023-06-19T10:41:27;30.90;80.40
2453;DHT22;63678;47.994;7.854;2023-06-19T10:44:02;30.90;80.60
2453;DHT22;63678;47.994;7.854;2023-06-19T10:46:36;30.90;80.70
2453;DHT22;63678;47.994;7.854;2023-06-19T10:49:10;31.30;81.40
2453;DHT22;63678;47.994;7.854;2023-06-19T10:51:43;30.90;81.10
2453;DHT22;63678;47.994;7.854;2023-06-19T10:54:15;30.70;82.40
2453;DHT22;63678;47.994;7.854;2023-06-19T10:56:48;30.60;82.50
2453;DHT22;63678;47.994;7.854;2023-06-19T11:01:53;30.70;82.00
2453;DHT22;63678;47.994;7.854;2023-06-19T11:04:26;30.50;81.70
2453;DHT22;63678;47.994;7.854;2023-06-19T11:07:05;31.20;80.10
2453;DHT22;63678;47.994;7.854;2023-06-19T11:09:37;31.20;80.70
2453;DHT22;63678;47.994;7.854;2023-06-19T11:12:11;31.10;81.10
2453;DHT22;63678;47.994;7.854;2023-06-19T11:17:17;30.00;82.40
2453;DHT22;63678;47.994;7.854;2023-06-19T11:19:56;30.10;81.40
2453;DHT22;63678;47.994;7.854;2023-06-19T11:22:40;30.00;81.90
2453;DHT22;63678;47.994;7.854;2023-06-19T11:25:13;30.40;82.30
2453;DHT22;63678;47.994;7.854;2023-06-19T11:27:45;30.20;82.60
2453;DHT22;63678;47.994;7.854;2023-06-19T11:30:30;30.80;81.50
2453;DHT22;63678;47.994;7.854;2023-06-19T11:33:20;30.80;79.90
2453;DHT22;63678;47.994;7.854;2023-06-19T11:35:54;31.10;80.20
2453;DHT22;63678;47.994;7.854;2023-06-19T11:38:32;31.50;80.10
2453;DHT22;63678;47.994;7.854;2023-06-19T11:41:08;31.10;80.90
2453;DHT22;63678;47.994;7.854;2023-06-19T11:43:40;31.00;80.30
2453;DHT22;63678;47.994;7.854;2023-06-19T11:46:12;31.20;80.60
2453;DHT22;63678;47.994;7.854;2023-06-19T11:48:46;29.90;80.50
2453;DHT22;63678;47.994;7.854;2023-06-19T11:51:37;30.40;81.40
2453;DHT22;63678;47.994;7.854;2023-06-19T11:54:14;30.60;81.20
2453;DHT22;63678;47.994;7.854;2023-06-19T11:56:46;30.90;81.20
2453;DHT22;63678;47.994;7.854;2023-06-19T11:59:21;31.30;81.20
2453;DHT22;63678;47.994;7.854;2023-06-19T12:01:54;31.30;80.50
2453;DHT22;63678;47.994;7.854;2023-06-19T12:04:28;31.40;79.40
2453;DHT22;63678;47.994;7.854;2023-06-19T12:07:01;31.20;79.90
2453;DHT22;63678;47.994;7.854;2023-06-19T12:09:35;31.10;80.20
2453;DHT22;63678;47.994;7.854;2023-06-19T12:12:09;30.60;79.60
2453;DHT22;63678;47.994;7.854;2023-06-19T12:14:42;30.70;79.50
2453;DHT22;63678;47.994;7.854;2023-06-19T12:17:14;30.50;79.80
2453;DHT22;63678;47.994;7.854;2023-06-19T12:19:47;30.00;80.20
2453;DHT22;63678;47.994;7.854;2023-06-19T12:22:20;30.00;80.60
2453;DHT22;63678;47.994;7.854;2023-06-19T12:24:53;30.20;80.80
2453;DHT22;63678;47.994;7.854;2023-06-19T12:27:25;29.70;80.60
2453;DHT22;63678;47.994;7.854;2023-06-19T12:29:57;30.10;80.80
2453;DHT22;63678;47.994;7.854;2023-06-19T12:32:29;30.00;80.30
2453;DHT22;63678;47.994;7.854;2023-06-19T12:35:02;30.30;80.50
2453;DHT22;63678;47.994;7.854;2023-06-19T12:37:35;29.90;80.30
2453;DHT22;63678;47.994;7.854;2023-06-19T12:40:08;30.40;79.70
2453;DHT22;63678;47.994;7.854;2023-06-19T12:42:43;29.90;80.60
2453;DHT22;63678;47.994;7.854;2023-06-19T12:45:15;30.60;80.50
2453;DHT22;63678;47.994;7.854;2023-06-19T12:47:48;30.30;79.80
2453;DHT22;63678;47.994;7.854;2023-06-19T12:50:20;30.30;80.70
2453;DHT22;63678;47.994;7.854;2023-06-19T12:52:53;30.30;80.40
2453;DHT22;63678;47.994;7.854;2023-06-19T12:55:25;29.50;80.50
2453;DHT22;63678;47.994;7.854;2023-06-19T12:57:57;29.40;81.60
2453;DHT22;63678;47.994;7.854;2023-06-19T13:00:30;29.60;80.50
2453;DHT22;63678;47.994;7.854;2023-06-19T13:05:35;29.70;80.90
2453;DHT22;63678;47.994;7.854;2023-06-19T13:08:07;29.70;81.20
2453;DHT22;63678;47.994;7.854;2023-06-19T13:10:40;30.00;80.80
2453;DHT22;63678;47.994;7.854;2023-06-19T13:13:13;29.40;80.10
2453;DHT22;63678;47.994;7.854;2023-06-19T13:15:45;29.20;81.40
2453;DHT22;63678;47.994;7.854;2023-06-19T13:18:18;29.70;81.90
2453;DHT22;63678;47.994;7.854;2023-06-19T13:20:50;29.60;82.70
2453;DHT22;63678;47.994;7.854;2023-06-19T13:23:23;29.20;81.80
2453;DHT22;63678;47.994;7.854;2023-06-19T13:25:55;29.30;82.50
2453;DHT22;63678;47.994;7.854;2023-06-19T13:28:27;29.70;80.90
2453;DHT22;63678;47.994;7.854;2023-06-19T13:31:00;29.40;80.90
2453;DHT22;63678;47.994;7.854;2023-06-19T13:33:32;29.00;81.10
2453;DHT22;63678;47.994;7.854;2023-06-19T13:36:04;28.90;81.00
2453;DHT22;63678;47.994;7.854;2023-06-19T13:38:37;29.00;81.80
2453;DHT22;63678;47.994;7.854;2023-06-19T13:41:09;29.60;81.10
2453;DHT22;63678;47.994;7.854;2023-06-19T13:43:42;30.10;80.00
2453;DHT22;63678;47.994;7.854;2023-06-19T13:46:14;30.30;80.00
2453;DHT22;63678;47.994;7.854;2023-06-19T13:48:47;30.40;78.70
2453;DHT22;63678;47.994;7.854;2023-06-19T13:51:23;30.00;79.90
2453;DHT22;63678;47.994;7.854;2023-06-19T13:53:55;30.00;80.30
2453;DHT22;63678;47.994;7.854;2023-06-19T13:56:28;30.40;79.30
2453;DHT22;63678;47.994;7.854;2023-06-19T13:59:00;30.40;79.30
2453;DHT22;63678;47.994;7.854;2023-06-19T14:01:33;30.80;78.70
2453;DHT22;63678;47.994;7.854;2023-06-19T14:04:07;30.10;79.70
2453;DHT22;63678;47.994;7.854;2023-06-19T14:06:40;30.30;80.30
2453;DHT22;63678;47.994;7.854;2023-06-19T14:09:14;30.40;79.20
2453;DHT22;63678;47.994;7.854;2023-06-19T14:11:47;30.30;79.60
2453;DHT22;63678;47.994;7.854;2023-06-19T14:14:19;29.60;80.10
2453;DHT22;63678;47.994;7.854;2023-06-19T14:16:52;29.50;80.70
2453;DHT22;63678;47.994;7.854;2023-06-19T14:21:57;30.20;79.70
2453;DHT22;63678;47.994;7.854;2023-06-19T14:24:29;30.50;79.90
2453;DHT22;63678;47.994;7.854;2023-06-19T14:27:01;30.50;79.80
2453;DHT22;63678;47.994;7.854;2023-06-19T14:29:34;30.50;80.20
2453;DHT22;63678;47.994;7.854;2023-06-19T14:32:06;30.70;79.40
2453;DHT22;63678;47.994;7.854;2023-06-19T14:34:38;30.50;79.70
2453;DHT22;63678;47.994;7.854;2023-06-19T14:39:44;30.80;78.70
2453;DHT22;63678;47.994;7.854;2023-06-19T14:42:16;30.40;79.40
2453;DHT22;63678;47.994;7.854;2023-06-19T14:44:48;30.30;79.20
2453;DHT22;63678;47.994;7.854;2023-06-19T14:47:21;30.30;79.60
2453;DHT22;63678;47.994;7.854;2023-06-19T14:49:53;30.60;79.50
2453;DHT22;63678;47.994;7.854;2023-06-19T14:52:25;30.10;79.20
2453;DHT22;63678;47.994;7.854;2023-06-19T14:54:58;30.70;79.00
2453;DHT22;63678;47.994;7.854;2023-06-19T14:57:30;30.90;79.10
2453;DHT22;63678;47.994;7.854;2023-06-19T15:00:03;31.10;78.90
2453;DHT22;63678;47.994;7.854;2023-06-19T15:02:37;30.90;78.70
2453;DHT22;63678;47.994;7.854;2023-06-19T15:05:12;30.40;79.40
2453;DHT22;63678;47.994;7.854;2023-06-19T15:07:45;30.40;79.80
2453;DHT22;63678;47.994;7.854;2023-06-19T15:12:50;31.40;78.70
2453;DHT22;63678;47.994;7.854;2023-06-19T15:15:22;31.40;78.30
2453;DHT22;63678;47.994;7.854;2023-06-19T15:17:54;30.90;78.50
2453;DHT22;63678;47.994;7.854;2023-06-19T15:20:27;31.20;78.60
2453;DHT22;63678;47.994;7.854;2023-06-19T15:22:59;31.00;79.30
2453;DHT22;63678;47.994;7.854;2023-06-19T15:25:32;30.90;79.00
2453;DHT22;63678;47.994;7.854;2023-06-19T15:28:04;30.70;79.80
2453;DHT22;63678;47.994;7.854;2023-06-19T15:30:37;30.50;79.60
2453;DHT22;63678;47.994;7.854;2023-06-19T15:35:43;30.40;79.80
2453;DHT22;63678;47.994;7.854;2023-06-19T15:38:16;30.50;79.80
2453;DHT22;63678;47.994;7.854;2023-06-19T15:40:48;30.40;79.80
2453;DHT22;63678;47.994;7.854;2023-06-19T15:43:20;30.50;80.10
2453;DHT22;63678;47.994;7.854;2023-06-19T15:45:54;30.30;80.10
2453;DHT22;63678;47.994;7.854;2023-06-19T15:48:27;30.10;80.40
2453;DHT22;63678;47.994;7.854;2023-06-19T15:51:01;30.20;80.70
2453;DHT22;63678;47.994;7.854;2023-06-19T15:53:33;29.90;80.70
2453;DHT22;63678;47.994;7.854;2023-06-19T15:56:05;30.00;81.30
2453;DHT22;63678;47.994;7.854;2023-06-19T15:58:38;30.20;81.30
2453;DHT22;63678;47.994;7.854;2023-06-19T16:03:43;30.60;80.80
2453;DHT22;63678;47.994;7.854;2023-06-19T16:06:15;30.70;80.70
2453;DHT22;63678;47.994;7.854;2023-06-19T16:08:48;30.70;80.50
2453;DHT22;63678;47.994;7.854;2023-06-19T16:11:23;30.80;80.20
2453;DHT22;63678;47.994;7.854;2023-06-19T16:13:56;30.60;80.00
2453;DHT22;63678;47.994;7.854;2023-06-19T16:19:01;30.90;80.30
2453;DHT22;63678;47.994;7.854;2023-06-19T16:21:33;30.80;79.90
2453;DHT22;63678;47.994;7.854;2023-06-19T16:24:06;30.70;80.20
2453;DHT22;63678;47.994;7.854;2023-06-19T16:26:43;30.60;80.20
2453;DHT22;63678;47.994;7.854;2023-06-19T16:31:50;30.70;80.40
2453;DHT22;63678;47.994;7.854;2023-06-19T16:34:39;30.50;81.30
2453;DHT22;63678;47.994;7.854;2023-06-19T16:37:12;30.40;80.80
2453;DHT22;63678;47.994;7.854;2023-06-19T16:39:44;30.70;80.70
2453;DHT22;63678;47.994;7.854;2023-06-19T16:42:17;30.60;80.50
2453;DHT22;63678;47.994;7.854;2023-06-19T16:44:53;30.60;80.40
2453;DHT22;63678;47.994;7.854;2023-06-19T16:47:26;30.60;80.90
2453;DHT22;63678;47.994;7.854;2023-06-19T16:49:58;30.60;79.60
2453;DHT22;63678;47.994;7.854;2023-06-19T16:52:31;30.70;80.00
2453;DHT22;63678;47.994;7.854;2023-06-19T16:55:04;30.60;79.40
2453;DHT22;63678;47.994;7.854;2023-06-19T16:57:36;30.70;79.20
2453;DHT22;63678;47.994;7.854;2023-06-19T17:00:09;30.60;79.60
2453;DHT22;63678;47.994;7.854;2023-06-19T17:02:42;30.50;81.10
2453;DHT22;63678;47.994;7.854;2023-06-19T17:07:48;30.30;81.30
2453;DHT22;63678;47.994;7.854;2023-06-19T17:10:20;30.20;81.60
2453;DHT22;63678;47.994;7.854;2023-06-19T17:12:55;30.10;81.50
2453;DHT22;63678;47.994;7.854;2023-06-19T17:15:27;30.20;81.40
2453;DHT22;63678;47.994;7.854;2023-06-19T17:18:03;30.10;80.90
2453;DHT22;63678;47.994;7.854;2023-06-19T17:20:36;30.10;81.20
2453;DHT22;63678;47.994;7.854;2023-06-19T17:23:08;30.20;81.50
2453;DHT22;63678;47.994;7.854;2023-06-19T17:26:01;30.20;81.60
2453;DHT22;63678;47.994;7.854;2023-06-19T17:28:33;30.30;81.40
2453;DHT22;63678;47.994;7.854;2023-06-19T17:31:05;30.20;81.10
2453;DHT22;63678;47.994;7.854;2023-06-19T17:33:39;30.30;81.30
2453;DHT22;63678;47.994;7.854;2023-06-19T17:36:11;30.20;81.40
2453;DHT22;63678;47.994;7.854;2023-06-19T17:41:16;30.10;81.60
2453;DHT22;63678;47.994;7.854;2023-06-19T17:43:49;30.10;81.80
2453;DHT22;63678;47.994;7.854;2023-06-19T17:46:22;30.00;81.80
2453;DHT22;63678;47.994;7.854;2023-06-19T17:51:27;29.90;80.70
2453;DHT22;63678;47.994;7.854;2023-06-19T17:54:00;29.90;81.70
2453;DHT22;63678;47.994;7.854;2023-06-19T17:56:36;29.80;82.00
2453;DHT22;63678;47.994;7.854;2023-06-19T17:59:13;29.70;81.90
2453;DHT22;63678;47.994;7.854;2023-06-19T18:01:46;29.70;82.20
2453;DHT22;63678;47.994;7.854;2023-06-19T18:04:19;29.70;81.80
2453;DHT22;63678;47.994;7.854;2023-06-19T18:06:51;29.70;82.10
2453;DHT22;63678;47.994;7.854;2023-06-19T18:09:24;29.70;82.10
2453;DHT22;63678;47.994;7.854;2023-06-19T18:11:56;29.60;82.50
2453;DHT22;63678;47.994;7.854;2023-06-19T18:17:02;29.50;82.90
2453;DHT22;63678;47.994;7.854;2023-06-19T18:19:37;29.40;83.20